createdAt,value
2022-09-28T00:00:35.495Z,8.73
2022-09-28T00:01:35.716Z,8.74
2022-09-28T00:02:35.579Z,8.74
2022-09-28T00:03:35.454Z,8.73
2022-09-28T00:04:35.453Z,8.76
2022-09-28T00:05:35.433Z,8.78
2022-09-28T00:06:35.425Z,8.79
2022-09-28T00:07:35.433Z,8.81
2022-09-28T00:08:35.403Z,8.79
2022-09-28T00:09:35.384Z,8.79
2022-09-28T00:10:35.377Z,8.79
2022-09-28T00:11:35.364Z,8.78
2022-09-28T00:12:35.380Z,8.81
2022-09-28T00:13:35.344Z,8.81
2022-09-28T00:14:35.336Z,8.84
2022-09-28T00:15:35.314Z,8.84
2022-09-28T00:16:35.398Z,8.81
2022-09-28T00:17:35.294Z,8.84
2022-09-28T00:18:35.336Z,8.81
2022-09-28T00:19:35.275Z,8.81
2022-09-28T00:20:35.264Z,8.81
2022-09-28T00:21:35.253Z,8.79
2022-09-28T00:22:35.253Z,8.82
2022-09-28T00:23:35.234Z,8.82
2022-09-28T00:24:35.234Z,8.81
2022-09-28T00:25:35.214Z,8.82
2022-09-28T00:26:35.194Z,8.82
2022-09-28T00:27:35.190Z,8.81
2022-09-28T00:28:35.173Z,8.84
2022-09-28T00:29:35.235Z,8.84
2022-09-28T00:30:35.155Z,8.84
2022-09-28T00:31:35.183Z,8.84
2022-09-28T00:32:35.137Z,8.82
2022-09-28T00:33:35.114Z,8.79
2022-09-28T00:34:35.121Z,8.79
2022-09-28T00:35:35.117Z,8.81
2022-09-28T00:36:35.083Z,8.79
2022-09-28T00:37:35.076Z,8.79
2022-09-28T00:38:35.062Z,8.79
2022-09-28T00:39:35.044Z,8.78
2022-09-28T00:40:35.074Z,8.79
2022-09-28T00:41:35.043Z,8.79
2022-09-28T00:42:35.022Z,8.79
2022-09-28T00:43:35.024Z,8.79
2022-09-28T00:44:34.994Z,8.78
2022-09-28T00:45:35.127Z,8.79
2022-09-28T00:46:34.973Z,8.79
2022-09-28T00:47:34.973Z,8.78
2022-09-28T00:48:34.947Z,8.79
2022-09-28T00:49:34.933Z,8.79
2022-09-28T00:50:34.926Z,8.79
2022-09-28T00:51:34.934Z,8.76
2022-09-28T00:52:34.933Z,8.78
2022-09-28T00:53:34.899Z,8.78
2022-09-28T00:54:34.882Z,8.79
2022-09-28T00:55:34.873Z,8.78
2022-09-28T00:56:34.884Z,8.78
2022-09-28T00:57:34.843Z,8.74
2022-09-28T00:58:34.853Z,8.76
2022-09-28T00:59:34.814Z,8.74
2022-09-28T01:00:34.841Z,8.73
2022-09-28T01:01:34.801Z,8.73
2022-09-28T01:02:34.793Z,8.71
2022-09-28T01:03:34.774Z,8.71
2022-09-28T01:04:34.794Z,8.70
2022-09-28T01:05:34.753Z,8.71
2022-09-28T01:06:34.743Z,8.70
2022-09-28T01:07:34.734Z,8.71
2022-09-28T01:08:34.723Z,8.70
2022-09-28T01:09:34.702Z,8.71
2022-09-28T01:10:34.735Z,8.70
2022-09-28T01:11:34.691Z,8.71
2022-09-28T01:12:34.674Z,8.73
2022-09-28T01:13:34.665Z,8.71
2022-09-28T01:14:34.653Z,8.71
2022-09-28T01:15:34.640Z,8.73
2022-09-28T01:16:34.746Z,8.73
2022-09-28T01:17:34.613Z,8.74
2022-09-28T01:18:34.611Z,8.74
2022-09-28T01:19:34.591Z,8.76
2022-09-28T01:20:34.582Z,8.76
2022-09-28T01:21:34.564Z,8.76
2022-09-28T01:22:34.622Z,8.76
2022-09-28T01:23:34.558Z,8.76
2022-09-28T01:24:34.545Z,8.76
2022-09-28T01:25:34.524Z,8.79
2022-09-28T01:26:34.515Z,8.79
2022-09-28T01:27:34.503Z,8.81
2022-09-28T01:28:34.534Z,8.81
2022-09-28T01:29:34.483Z,8.82
2022-09-28T01:30:34.472Z,8.82
2022-09-28T01:31:34.529Z,8.79
2022-09-28T01:32:34.452Z,8.79
2022-09-28T01:33:34.434Z,8.81
2022-09-28T01:34:34.443Z,8.81
2022-09-28T01:35:34.412Z,8.81
2022-09-28T01:36:34.403Z,8.81
2022-09-28T01:37:34.383Z,8.81
2022-09-28T01:38:34.386Z,8.81
2022-09-28T01:39:34.389Z,8.81
2022-09-28T01:40:34.398Z,8.79
2022-09-28T01:41:34.343Z,8.81
2022-09-28T01:42:34.341Z,8.79
2022-09-28T01:43:34.328Z,8.79
2022-09-28T01:44:34.311Z,8.79
2022-09-28T01:45:34.349Z,8.79
2022-09-28T01:46:34.294Z,8.79
2022-09-28T01:47:34.283Z,8.81
2022-09-28T01:48:34.264Z,8.79
2022-09-28T01:49:34.273Z,8.78
2022-09-28T01:50:34.246Z,8.79
2022-09-28T01:51:34.243Z,8.79
2022-09-28T01:52:34.213Z,8.78
2022-09-28T01:53:34.213Z,8.78
2022-09-28T01:54:34.201Z,8.78
2022-09-28T01:55:34.186Z,8.76
2022-09-28T01:56:35.921Z,8.78
2022-09-28T01:57:34.164Z,8.76
2022-09-28T01:58:34.153Z,8.76
2022-09-28T01:59:34.142Z,8.78
2022-09-28T02:00:34.151Z,8.78
2022-09-28T02:01:34.122Z,8.78
2022-09-28T02:02:34.207Z,8.79
2022-09-28T02:03:34.105Z,8.79
2022-09-28T02:04:34.093Z,8.79
2022-09-28T02:05:34.076Z,8.82
2022-09-28T02:06:34.061Z,8.81
2022-09-28T02:07:34.083Z,8.81
2022-09-28T02:08:34.052Z,8.82
2022-09-28T02:09:34.032Z,8.82
2022-09-28T02:10:34.012Z,8.82
2022-09-28T02:11:34.013Z,8.84
2022-09-28T02:12:34.003Z,8.82
2022-09-28T02:13:33.982Z,8.85
2022-09-28T02:14:33.983Z,8.85
2022-09-28T02:15:33.960Z,8.85
2022-09-28T02:16:33.992Z,8.85
2022-09-28T02:17:33.943Z,8.82
2022-09-28T02:18:33.926Z,8.84
2022-09-28T02:19:33.943Z,8.84
2022-09-28T02:20:33.909Z,8.87
2022-09-28T02:21:33.898Z,8.87
2022-09-28T02:22:33.895Z,8.85
2022-09-28T02:23:33.884Z,8.85
2022-09-28T02:24:33.853Z,8.85
2022-09-28T02:25:33.912Z,8.84
2022-09-28T02:26:33.832Z,8.85
2022-09-28T02:27:33.824Z,8.87
2022-09-28T02:28:33.810Z,8.85
2022-09-28T02:29:33.802Z,8.87
2022-09-28T02:30:33.851Z,8.87
2022-09-28T02:31:33.873Z,8.88
2022-09-28T02:32:33.784Z,8.89
2022-09-28T02:33:33.752Z,8.89
2022-09-28T02:34:33.741Z,8.89
2022-09-28T02:35:33.738Z,8.91
2022-09-28T02:36:33.731Z,8.91
2022-09-28T02:37:33.731Z,8.92
2022-09-28T02:38:33.704Z,8.92
2022-09-28T02:39:33.693Z,8.92
2022-09-28T02:40:33.727Z,8.94
2022-09-28T02:41:33.692Z,8.95
2022-09-28T02:42:33.813Z,8.95
2022-09-28T02:43:33.683Z,8.95
2022-09-28T02:44:33.630Z,8.94
2022-09-28T02:45:33.717Z,8.94
2022-09-28T02:46:33.609Z,8.92
2022-09-28T02:47:33.632Z,8.95
2022-09-28T02:48:43.509Z,8.92
2022-09-28T02:49:34.581Z,8.92
2022-09-28T02:50:33.571Z,8.91
2022-09-28T02:51:33.607Z,8.91
2022-09-28T02:52:33.541Z,8.92
2022-09-28T02:53:33.632Z,8.92
2022-09-28T02:54:33.552Z,8.92
2022-09-28T02:55:33.522Z,8.94
2022-09-28T02:56:33.491Z,8.95
2022-09-28T02:57:33.493Z,8.94
2022-09-28T02:58:33.472Z,8.97
2022-09-28T02:59:33.462Z,8.99
2022-09-28T03:00:33.530Z,8.99
2022-09-28T03:01:33.441Z,8.97
2022-09-28T03:02:33.423Z,8.97
2022-09-28T03:03:33.421Z,8.97
2022-09-28T03:04:33.401Z,8.97
2022-09-28T03:05:33.392Z,8.97
2022-09-28T03:06:33.402Z,8.97
2022-09-28T03:07:33.371Z,8.97
2022-09-28T03:08:33.354Z,8.95
2022-09-28T03:09:33.350Z,8.95
2022-09-28T03:10:40.418Z,8.95
2022-09-28T03:11:33.328Z,8.94
2022-09-28T03:12:33.335Z,8.94
2022-09-28T03:13:33.301Z,8.94
2022-09-28T03:14:33.279Z,8.92
2022-09-28T03:15:33.287Z,8.91
2022-09-28T03:16:33.323Z,8.91
2022-09-28T03:17:33.261Z,8.91
2022-09-28T03:18:33.269Z,8.89
2022-09-28T03:19:33.234Z,8.87
2022-09-28T03:20:33.220Z,8.87
2022-09-28T03:21:33.209Z,8.87
2022-09-28T03:22:33.197Z,8.85
2022-09-28T03:23:33.187Z,8.85
2022-09-28T03:24:33.189Z,8.87
2022-09-28T03:25:33.167Z,8.88
2022-09-28T03:26:33.150Z,8.89
2022-09-28T03:27:33.140Z,8.91
2022-09-28T03:28:33.128Z,8.92
2022-09-28T03:29:33.143Z,8.91
2022-09-28T03:30:33.104Z,8.95
2022-09-28T03:31:33.188Z,8.97
2022-09-28T03:32:33.088Z,8.97
2022-09-28T03:33:33.071Z,8.97
2022-09-28T03:34:33.059Z,8.99
2022-09-28T03:35:33.069Z,9.00
2022-09-28T03:36:33.038Z,8.99
2022-09-28T03:37:33.029Z,8.99
2022-09-28T03:38:33.012Z,9.00
2022-09-28T03:39:33.010Z,9.00
2022-09-28T03:40:33.027Z,9.00
2022-09-28T03:41:32.999Z,8.97
2022-09-28T03:42:32.968Z,8.95
2022-09-28T03:43:32.966Z,8.91
2022-09-28T03:44:32.949Z,8.91
2022-09-28T03:45:33.016Z,8.87
2022-09-28T03:46:32.918Z,8.85
2022-09-28T03:47:32.929Z,8.84
2022-09-28T03:48:33.171Z,8.81
2022-09-28T03:49:32.890Z,8.81
2022-09-28T03:50:32.869Z,8.79
2022-09-28T03:51:32.859Z,8.78
2022-09-28T03:52:32.878Z,8.76
2022-09-28T03:53:32.850Z,8.76
2022-09-28T03:54:32.829Z,8.76
2022-09-28T03:55:32.821Z,8.73
2022-09-28T03:56:32.801Z,8.74
2022-09-28T03:57:32.801Z,8.76
2022-09-28T03:58:32.798Z,8.74
2022-09-28T03:59:32.778Z,8.73
2022-09-28T04:00:32.846Z,8.73
2022-09-28T04:01:32.834Z,8.73
2022-09-28T04:02:32.816Z,8.76
2022-09-28T04:03:32.749Z,8.74
2022-09-28T04:04:32.712Z,8.73
2022-09-28T04:05:32.707Z,8.71
2022-09-28T04:06:32.690Z,8.71
2022-09-28T04:07:32.679Z,8.71
2022-09-28T04:08:32.668Z,8.71
2022-09-28T04:09:32.678Z,8.71
2022-09-28T04:10:32.639Z,8.71
2022-09-28T04:11:47.576Z,8.70
2022-09-28T04:12:33.620Z,8.69
2022-09-28T04:13:32.609Z,8.70
2022-09-28T04:14:32.621Z,8.67
2022-09-28T04:15:32.588Z,8.67
2022-09-28T04:16:32.590Z,8.66
2022-09-28T04:17:35.489Z,8.66
2022-09-28T04:18:33.563Z,8.66
2022-09-28T04:19:32.541Z,8.64
2022-09-28T04:20:32.550Z,8.64
2022-09-28T04:21:32.531Z,8.64
2022-09-28T04:22:32.509Z,8.61
2022-09-28T04:23:32.498Z,8.60
2022-09-28T04:24:32.488Z,8.58
2022-09-28T04:25:32.476Z,8.58
2022-09-28T04:26:32.478Z,8.56
2022-09-28T04:27:32.462Z,8.56
2022-09-28T04:28:32.440Z,8.55
2022-09-28T04:29:32.437Z,8.53
2022-09-28T04:30:32.408Z,8.53
2022-09-28T04:31:32.479Z,8.55
2022-09-28T04:32:32.390Z,8.52
2022-09-28T04:33:32.389Z,8.52
2022-09-28T04:34:35.876Z,8.49
2022-09-28T04:35:33.362Z,8.48
2022-09-28T04:36:32.349Z,8.45
2022-09-28T04:37:32.362Z,8.44
2022-09-28T04:38:51.913Z,8.44
2022-09-28T04:39:33.410Z,8.42
2022-09-28T04:40:32.353Z,8.44
2022-09-28T04:41:32.296Z,8.41
2022-09-28T04:42:32.279Z,8.42
2022-09-28T04:43:32.288Z,8.37
2022-09-28T04:44:32.259Z,8.37
2022-09-28T04:45:32.293Z,8.38
2022-09-28T04:46:32.228Z,8.38
2022-09-28T04:47:32.218Z,8.38
2022-09-28T04:48:32.209Z,8.38
2022-09-28T04:49:32.224Z,8.36
2022-09-28T04:50:32.194Z,8.34
2022-09-28T04:51:32.179Z,8.33
2022-09-28T04:52:32.159Z,8.33
2022-09-28T04:53:32.158Z,8.31
2022-09-28T04:54:32.138Z,8.30
2022-09-28T04:55:32.151Z,8.30
2022-09-28T04:56:32.119Z,8.31
2022-09-28T04:57:32.139Z,8.31
2022-09-28T04:58:32.098Z,8.30
2022-09-28T04:59:32.092Z,8.30
2022-09-28T05:00:32.097Z,8.31
2022-09-28T05:01:32.146Z,8.33
2022-09-28T05:02:32.144Z,8.31
2022-09-28T05:03:32.040Z,8.31
2022-09-28T05:04:32.031Z,8.33
2022-09-28T05:05:32.038Z,8.34
2022-09-28T05:06:32.026Z,8.36
2022-09-28T05:07:31.999Z,8.36
2022-09-28T05:08:31.987Z,8.37
2022-09-28T05:09:34.989Z,8.38
2022-09-28T05:10:32.958Z,8.38
2022-09-28T05:11:31.973Z,8.38
2022-09-28T05:12:31.939Z,8.37
2022-09-28T05:13:31.931Z,8.38
2022-09-28T05:14:31.911Z,8.38
2022-09-28T05:15:31.908Z,8.37
2022-09-28T05:16:31.903Z,8.38
2022-09-28T05:17:31.909Z,8.42
2022-09-28T05:18:31.869Z,8.41
2022-09-28T05:19:31.857Z,8.38
2022-09-28T05:20:31.842Z,8.41
2022-09-28T05:21:31.838Z,8.41
2022-09-28T05:22:31.818Z,8.41
2022-09-28T05:23:33.482Z,8.41
2022-09-28T05:24:31.807Z,8.41
2022-09-28T05:25:31.798Z,8.44
2022-09-28T05:26:31.777Z,8.44
2022-09-28T05:27:31.770Z,8.45
2022-09-28T05:28:31.799Z,8.45
2022-09-28T05:29:32.579Z,8.44
2022-09-28T05:30:31.735Z,8.44
2022-09-28T05:31:31.790Z,8.44
2022-09-28T05:32:31.710Z,8.41
2022-09-28T05:33:31.708Z,8.37
2022-09-28T05:34:31.699Z,8.36
2022-09-28T05:35:31.680Z,8.34
2022-09-28T05:36:31.658Z,8.31
2022-09-28T05:37:31.658Z,8.28
2022-09-28T05:38:31.641Z,8.26
2022-09-28T05:39:31.657Z,8.24
2022-09-28T05:40:31.688Z,8.19
2022-09-28T05:41:31.616Z,8.18
2022-09-28T05:42:31.936Z,8.18
2022-09-28T05:43:31.587Z,8.15
2022-09-28T05:44:31.579Z,8.13
2022-09-28T05:45:31.661Z,8.10
2022-09-28T05:46:31.547Z,8.08
2022-09-28T05:47:31.541Z,8.06
2022-09-28T05:48:31.529Z,8.08
2022-09-28T05:49:31.521Z,8.06
2022-09-28T05:50:31.506Z,8.03
2022-09-28T05:51:31.519Z,8.00
2022-09-28T05:52:31.479Z,7.98
2022-09-28T05:53:31.479Z,7.95
2022-09-28T05:54:31.457Z,7.98
2022-09-28T05:55:31.488Z,8.01
2022-09-28T05:56:31.459Z,8.08
2022-09-28T05:57:31.428Z,8.09
2022-09-28T05:58:31.416Z,8.13
2022-09-28T05:59:31.408Z,8.15
2022-09-28T06:00:31.407Z,8.16
2022-09-28T06:01:31.500Z,8.18
2022-09-28T06:02:31.428Z,8.16
2022-09-28T06:03:31.368Z,8.19
2022-09-28T06:04:31.354Z,8.18
2022-09-28T06:05:31.336Z,8.18
2022-09-28T06:06:31.330Z,8.18
2022-09-28T06:07:31.308Z,8.18
2022-09-28T06:08:31.326Z,8.15
2022-09-28T06:09:31.290Z,8.12
2022-09-28T06:10:31.286Z,8.12
2022-09-28T06:11:31.269Z,8.13
2022-09-28T06:12:31.258Z,8.10
2022-09-28T06:13:31.267Z,8.10
2022-09-28T06:14:31.239Z,8.12
2022-09-28T06:15:31.229Z,8.18
2022-09-28T06:16:31.273Z,8.18
2022-09-28T06:17:31.198Z,8.20
2022-09-28T06:18:31.197Z,8.26
2022-09-28T06:19:31.198Z,8.30
2022-09-28T06:20:31.168Z,8.38
2022-09-28T06:21:31.157Z,8.46
2022-09-28T06:22:31.147Z,8.53
2022-09-28T06:23:31.137Z,8.60
2022-09-28T06:24:31.117Z,8.67
2022-09-28T06:25:31.138Z,8.78
2022-09-28T06:26:31.105Z,8.87
2022-09-28T06:27:31.087Z,8.92
2022-09-28T06:28:31.078Z,9.10
2022-09-28T06:29:31.068Z,9.32
2022-09-28T06:30:31.098Z,9.64
2022-09-28T06:31:31.066Z,9.84
2022-09-28T06:32:31.036Z,10.40
2022-09-28T06:33:31.017Z,10.54
2022-09-28T06:34:31.018Z,10.53
2022-09-28T06:35:31.014Z,10.40
2022-09-28T06:36:30.988Z,10.30
2022-09-28T06:37:30.998Z,10.41
2022-09-28T06:38:30.966Z,11.83
2022-09-28T06:39:30.947Z,12.47
2022-09-28T06:40:30.986Z,12.12
2022-09-28T06:41:30.930Z,11.84
2022-09-28T06:42:30.946Z,11.72
2022-09-28T06:43:34.234Z,11.52
2022-09-28T06:44:30.901Z,11.43
2022-09-28T06:45:30.878Z,11.44
2022-09-28T06:46:30.906Z,11.78
2022-09-28T06:47:30.858Z,11.91
2022-09-28T06:48:30.868Z,11.59
2022-09-28T06:49:30.835Z,11.33
2022-09-28T06:50:30.827Z,11.15
2022-09-28T06:51:30.809Z,11.10
2022-09-28T06:52:30.799Z,10.94
2022-09-28T06:53:30.801Z,10.87
2022-09-28T06:54:30.808Z,10.78
2022-09-28T06:55:30.768Z,10.71
2022-09-28T06:56:32.844Z,10.69
2022-09-28T06:57:30.747Z,10.69
2022-09-28T06:58:30.737Z,10.69
2022-09-28T06:59:30.748Z,10.68
2022-09-28T07:00:30.749Z,10.64
2022-09-28T07:01:30.778Z,10.63
2022-09-28T07:02:30.782Z,10.57
2022-09-28T07:03:30.671Z,10.49
2022-09-28T07:04:30.678Z,10.40
2022-09-28T07:05:30.675Z,10.42
2022-09-28T07:06:30.639Z,10.57
2022-09-28T07:07:30.628Z,10.67
2022-09-28T07:08:30.628Z,10.74
2022-09-28T07:09:32.896Z,10.72
2022-09-28T07:10:30.620Z,10.81
2022-09-28T07:11:30.579Z,10.84
2022-09-28T07:12:30.578Z,10.93
2022-09-28T07:13:48.828Z,10.97
2022-09-28T07:14:44.974Z,11.05
2022-09-28T07:15:31.558Z,11.10
2022-09-28T07:16:51.555Z,11.22
2022-09-28T07:17:31.763Z,11.30
2022-09-28T07:18:30.548Z,11.45
2022-09-28T07:19:30.500Z,11.62
2022-09-28T07:20:30.569Z,11.65
2022-09-28T07:21:30.819Z,11.72
2022-09-28T07:22:38.429Z,11.70
2022-09-28T07:23:32.105Z,11.68
2022-09-28T07:24:30.439Z,11.62
2022-09-28T07:25:30.430Z,11.60
2022-09-28T07:26:30.459Z,11.45
2022-09-28T07:27:30.401Z,11.36
2022-09-28T07:28:30.389Z,11.26
2022-09-28T07:29:30.379Z,11.22
2022-09-28T07:30:30.405Z,11.18
2022-09-28T07:31:30.363Z,11.18
2022-09-28T07:33:30.339Z,11.08
2022-09-28T07:34:30.319Z,11.02
2022-09-28T07:35:30.308Z,11.02
2022-09-28T07:36:30.298Z,11.04
2022-09-28T07:37:30.310Z,11.10
2022-09-28T07:38:30.281Z,11.18
2022-09-28T07:39:30.259Z,11.17
2022-09-28T07:40:30.300Z,11.19
2022-09-28T07:41:30.241Z,11.26
2022-09-28T07:42:30.231Z,11.25
2022-09-28T07:43:30.246Z,11.27
2022-09-28T07:44:30.210Z,11.19
2022-09-28T07:45:30.269Z,11.18
2022-09-28T07:46:30.180Z,11.14
2022-09-28T07:47:34.865Z,11.19
2022-09-28T07:48:31.180Z,11.25
2022-09-28T07:49:30.151Z,11.29
2022-09-28T07:50:30.131Z,11.22
2022-09-28T07:51:30.129Z,11.23
2022-09-28T07:52:30.117Z,11.27
2022-09-28T07:53:30.101Z,11.30
2022-09-28T07:54:30.109Z,11.33
2022-09-28T07:55:30.081Z,11.36
2022-09-28T07:56:30.069Z,11.29
2022-09-28T07:57:30.050Z,11.22
2022-09-28T07:58:30.042Z,11.15
2022-09-28T07:59:30.061Z,11.18
2022-09-28T08:00:33.975Z,11.14
2022-09-28T08:01:30.062Z,11.11
2022-09-28T08:02:30.023Z,11.07
2022-09-28T08:03:29.990Z,11.00
2022-09-28T08:04:29.980Z,10.93
2022-09-28T08:05:30.115Z,10.82
2022-09-28T08:06:29.951Z,10.76
2022-09-28T08:07:29.940Z,10.74
2022-09-28T08:08:29.941Z,10.72
2022-09-28T08:09:29.920Z,10.72
2022-09-28T08:10:29.942Z,10.67
2022-09-28T08:11:29.891Z,10.63
2022-09-28T08:12:29.881Z,10.64
2022-09-28T08:13:29.870Z,10.67
2022-09-28T08:14:29.861Z,10.61
2022-09-28T08:15:29.852Z,10.67
2022-09-28T08:16:29.974Z,10.67
2022-09-28T08:17:29.821Z,10.63
2022-09-28T08:18:29.819Z,10.63
2022-09-28T08:19:29.801Z,10.63
2022-09-28T08:20:29.791Z,10.67
2022-09-28T08:21:29.779Z,10.68
2022-09-28T08:22:29.792Z,10.74
2022-09-28T08:23:29.759Z,10.79
2022-09-28T08:24:29.749Z,10.84
2022-09-28T08:25:29.732Z,10.86
2022-09-28T08:26:29.721Z,10.87
2022-09-28T08:27:29.715Z,10.93
2022-09-28T08:28:29.719Z,10.97
2022-09-28T08:29:29.693Z,11.10
2022-09-28T08:30:29.705Z,11.07
2022-09-28T08:31:29.670Z,11.14
2022-09-28T08:32:29.662Z,11.22
2022-09-28T08:33:29.684Z,11.30
2022-09-28T08:34:29.636Z,11.36
2022-09-28T08:35:29.613Z,11.44
2022-09-28T08:36:29.611Z,11.51
2022-09-28T08:37:29.595Z,11.50
2022-09-28T08:38:29.587Z,11.47
2022-09-28T08:39:29.591Z,11.44
2022-09-28T08:40:29.671Z,11.44
2022-09-28T08:41:29.551Z,11.37
2022-09-28T08:42:29.558Z,11.35
2022-09-28T08:43:29.530Z,11.35
2022-09-28T08:44:29.522Z,11.26
2022-09-28T08:45:29.520Z,11.27
2022-09-28T08:46:29.559Z,11.29
2022-09-28T08:47:29.483Z,11.35
2022-09-28T08:48:29.471Z,11.55
2022-09-28T08:49:29.475Z,11.78
2022-09-28T08:50:29.655Z,12.04
2022-09-28T08:51:29.432Z,12.36
2022-09-28T08:52:29.421Z,12.64
2022-09-28T08:53:29.413Z,12.94
2022-09-28T08:54:29.404Z,13.18
2022-09-28T08:55:29.411Z,13.41
2022-09-28T08:56:29.381Z,13.65
2022-09-28T08:57:29.362Z,13.92
2022-09-28T08:58:29.361Z,14.18
2022-09-28T08:59:29.342Z,14.28
2022-09-28T09:00:29.332Z,14.36
2022-09-28T09:01:29.410Z,14.40
2022-09-28T09:02:29.357Z,14.44
2022-09-28T09:03:29.293Z,14.53
2022-09-28T09:04:29.293Z,14.55
2022-09-28T09:05:29.293Z,14.45
2022-09-28T09:06:29.264Z,14.26
2022-09-28T09:07:29.273Z,14.07
2022-09-28T09:08:29.243Z,13.99
2022-09-28T09:09:29.239Z,13.83
2022-09-28T09:10:29.223Z,13.72
2022-09-28T09:11:37.034Z,13.67
2022-09-28T09:12:30.413Z,13.60
2022-09-28T09:13:29.235Z,13.60
2022-09-28T09:14:29.214Z,13.63
2022-09-28T09:15:29.245Z,13.65
2022-09-28T09:16:29.217Z,13.71
2022-09-28T09:17:29.163Z,13.72
2022-09-28T09:18:29.144Z,13.70
2022-09-28T09:19:29.145Z,13.65
2022-09-28T09:20:29.135Z,13.53
2022-09-28T09:21:29.105Z,13.42
2022-09-28T09:22:29.105Z,13.38
2022-09-28T09:23:29.065Z,13.37
2022-09-28T09:24:29.074Z,13.39
2022-09-28T09:25:29.095Z,13.28
2022-09-28T09:26:29.035Z,13.22
2022-09-28T09:27:29.015Z,13.23
2022-09-28T09:28:29.005Z,13.23
2022-09-28T09:29:29.270Z,13.25
2022-09-28T09:30:31.596Z,13.35
2022-09-28T09:31:28.987Z,13.35
2022-09-28T09:32:28.965Z,13.42
2022-09-28T09:33:28.996Z,13.39
2022-09-28T09:34:28.943Z,13.39
2022-09-28T09:35:30.729Z,13.30
2022-09-28T09:36:28.937Z,13.15
2022-09-28T09:37:28.913Z,13.08
2022-09-28T09:38:28.926Z,13.09
2022-09-28T09:39:28.897Z,13.12
2022-09-28T09:40:29.250Z,13.12
2022-09-28T09:41:28.859Z,13.01
2022-09-28T09:42:28.906Z,12.95
2022-09-28T09:43:31.562Z,12.87
2022-09-28T09:44:28.836Z,12.83
2022-09-28T09:45:28.816Z,12.70
2022-09-28T09:46:28.807Z,12.65
2022-09-28T09:47:28.794Z,12.58
2022-09-28T09:48:28.797Z,12.45
2022-09-28T09:49:28.767Z,12.40
2022-09-28T09:50:28.757Z,12.39
2022-09-28T09:51:28.746Z,12.40
2022-09-28T09:52:28.798Z,12.42
2022-09-28T09:53:28.817Z,12.45
2022-09-28T09:54:28.716Z,12.43
2022-09-28T09:55:30.071Z,12.49
2022-09-28T09:56:28.687Z,12.57
2022-09-28T09:57:28.868Z,12.64
2022-09-28T09:58:28.761Z,12.73
2022-09-28T09:59:28.771Z,12.82
2022-09-28T10:00:28.658Z,12.94
2022-09-28T10:01:28.689Z,13.03
2022-09-28T10:02:28.690Z,13.03
2022-09-28T10:03:28.606Z,13.13
2022-09-28T10:04:28.610Z,13.15
2022-09-28T10:05:28.658Z,13.19
2022-09-28T10:06:28.609Z,13.33
2022-09-28T10:07:28.660Z,13.49
2022-09-28T10:08:28.728Z,13.70
2022-09-28T10:09:28.628Z,13.77
2022-09-28T10:10:28.602Z,13.83
2022-09-28T10:11:28.539Z,13.83
2022-09-28T10:12:28.512Z,13.92
2022-09-28T10:13:28.508Z,14.03
2022-09-28T10:14:28.478Z,14.15
2022-09-28T10:15:28.470Z,14.26
2022-09-28T10:16:28.587Z,14.44
2022-09-28T10:17:28.448Z,14.48
2022-09-28T10:18:28.598Z,14.58
2022-09-28T10:19:28.618Z,14.62
2022-09-28T10:20:28.408Z,14.58
2022-09-28T10:21:28.402Z,14.55
2022-09-28T10:22:28.510Z,14.51
2022-09-28T10:23:28.389Z,14.66
2022-09-28T10:24:28.369Z,14.89
2022-09-28T10:25:28.359Z,15.15
2022-09-28T10:26:28.339Z,15.36
2022-09-28T10:27:28.420Z,15.52
2022-09-28T10:28:28.399Z,15.43
2022-09-28T10:29:28.318Z,15.25
2022-09-28T10:30:28.379Z,15.27
2022-09-28T10:31:28.291Z,15.40
2022-09-28T10:32:28.270Z,15.52
2022-09-28T10:33:28.309Z,15.46
2022-09-28T10:34:28.253Z,15.31
2022-09-28T10:35:28.389Z,15.36
2022-09-28T10:36:28.244Z,15.37
2022-09-28T10:37:28.408Z,15.33
2022-09-28T10:38:28.291Z,15.29
2022-09-28T10:39:28.221Z,15.25
2022-09-28T10:40:28.285Z,15.09
2022-09-28T10:41:28.172Z,14.91
2022-09-28T10:42:28.180Z,14.82
2022-09-28T10:43:28.150Z,14.79
2022-09-28T10:44:28.137Z,14.59
2022-09-28T10:45:28.151Z,14.32
2022-09-28T10:46:28.179Z,14.18
2022-09-28T10:47:28.161Z,14.07
2022-09-28T10:48:28.113Z,13.96
2022-09-28T10:49:28.091Z,13.90
2022-09-28T10:50:28.090Z,13.89
2022-09-28T10:51:28.162Z,13.81
2022-09-28T10:52:28.072Z,13.81
2022-09-28T10:53:28.031Z,13.68
2022-09-28T10:54:28.020Z,13.63
2022-09-28T10:55:28.070Z,13.67
2022-09-28T10:56:28.133Z,13.75
2022-09-28T10:57:28.019Z,13.72
2022-09-28T10:58:28.002Z,13.72
2022-09-28T10:59:27.977Z,13.81
2022-09-28T11:00:28.012Z,13.87
2022-09-28T11:01:28.055Z,13.96
2022-09-28T11:02:30.362Z,13.95
2022-09-28T11:03:28.952Z,14.20
2022-09-28T11:04:27.913Z,14.37
2022-09-28T11:05:27.981Z,14.59
2022-09-28T11:06:27.883Z,14.77
2022-09-28T11:07:28.023Z,14.86
2022-09-28T11:08:27.853Z,14.86
2022-09-28T11:09:30.540Z,14.85
2022-09-28T11:10:27.842Z,14.81
2022-09-28T11:11:27.823Z,14.58
2022-09-28T11:12:27.817Z,14.50
2022-09-28T11:13:27.860Z,14.58
2022-09-28T11:14:27.783Z,14.59
2022-09-28T11:15:27.791Z,14.66
2022-09-28T11:16:27.801Z,14.82
2022-09-28T11:17:27.785Z,14.77
2022-09-28T11:18:27.743Z,14.70
2022-09-28T11:19:27.804Z,14.63
2022-09-28T11:20:28.601Z,14.62
2022-09-28T11:21:27.716Z,14.65
2022-09-28T11:22:27.702Z,14.55
2022-09-28T11:23:27.684Z,14.48
2022-09-28T11:24:27.706Z,14.44
2022-09-28T11:25:27.673Z,14.37
2022-09-28T11:26:27.669Z,14.30
2022-09-28T11:27:27.646Z,14.25
2022-09-28T11:28:27.631Z,14.30
2022-09-28T11:29:27.619Z,14.26
2022-09-28T11:30:27.759Z,14.18
2022-09-28T11:31:27.616Z,14.22
2022-09-28T11:32:27.597Z,14.33
2022-09-28T11:33:27.576Z,14.33
2022-09-28T11:34:36.420Z,14.37
2022-09-28T11:35:28.597Z,14.44
2022-09-28T11:36:27.535Z,14.47
2022-09-28T11:37:27.528Z,14.55
2022-09-28T11:38:27.604Z,14.63
2022-09-28T11:39:27.506Z,14.69
2022-09-28T11:40:27.558Z,14.65
2022-09-28T11:41:27.515Z,14.53
2022-09-28T11:42:27.487Z,14.43
2022-09-28T11:43:27.466Z,14.45
2022-09-28T11:44:30.975Z,14.48
2022-09-28T11:45:28.434Z,14.55
2022-09-28T11:46:27.466Z,14.58
2022-09-28T11:47:27.441Z,14.79
2022-09-28T11:48:27.398Z,15.03
2022-09-28T11:49:27.397Z,15.29
2022-09-28T11:50:27.377Z,15.52
2022-09-28T11:51:27.368Z,15.67
2022-09-28T11:52:27.347Z,15.73
2022-09-28T11:53:27.375Z,15.84
2022-09-28T11:54:27.327Z,15.82
2022-09-28T11:55:27.317Z,15.79
2022-09-28T11:56:27.298Z,15.82
2022-09-28T11:57:27.302Z,16.01
2022-09-28T11:58:27.297Z,16.16
2022-09-28T11:59:27.268Z,16.16
2022-09-28T12:00:27.257Z,16.13
2022-09-28T12:01:27.249Z,16.09
2022-09-28T12:02:27.375Z,16.00
2022-09-28T12:03:27.359Z,15.76
2022-09-28T12:04:27.269Z,15.57
2022-09-28T12:05:27.207Z,15.37
2022-09-28T12:06:27.219Z,15.22
2022-09-28T12:07:27.178Z,15.10
2022-09-28T12:08:27.159Z,15.00
2022-09-28T12:09:27.157Z,14.88
2022-09-28T12:10:27.161Z,14.70
2022-09-28T12:11:27.132Z,14.55
2022-09-28T12:12:27.118Z,14.54
2022-09-28T12:13:27.108Z,14.53
2022-09-28T12:14:27.090Z,14.55
2022-09-28T12:15:27.112Z,14.59
2022-09-28T12:17:00.405Z,14.70
2022-09-28T12:17:28.095Z,14.78
2022-09-28T12:18:27.049Z,14.85
2022-09-28T12:19:27.194Z,14.77
2022-09-28T12:20:27.045Z,14.72
2022-09-28T12:21:27.043Z,14.86
2022-09-28T12:22:27.000Z,15.00
2022-09-28T12:23:26.992Z,15.14
2022-09-28T12:24:26.985Z,15.21
2022-09-28T12:25:26.970Z,15.29
2022-09-28T12:26:26.993Z,15.39
2022-09-28T12:27:27.032Z,15.43
2022-09-28T12:28:26.944Z,15.52
2022-09-28T12:29:26.921Z,15.59
2022-09-28T12:30:26.911Z,15.65
2022-09-28T12:31:26.902Z,15.64
2022-09-28T12:32:26.888Z,15.64
2022-09-28T12:33:26.892Z,15.62
2022-09-28T12:34:26.949Z,15.61
2022-09-28T12:35:26.860Z,15.52
2022-09-28T12:36:26.840Z,15.42
2022-09-28T12:37:26.841Z,15.51
2022-09-28T12:38:26.844Z,15.61
2022-09-28T12:39:40.618Z,15.55
2022-09-28T12:40:27.811Z,15.57
2022-09-28T12:41:26.782Z,15.68
2022-09-28T12:42:26.782Z,15.70
2022-09-28T12:43:26.771Z,15.73
2022-09-28T12:44:26.781Z,15.76
2022-09-28T12:45:26.744Z,15.76
2022-09-28T12:46:26.792Z,15.70
2022-09-28T12:47:26.715Z,15.62
2022-09-28T12:48:26.744Z,15.61
2022-09-28T12:50:27.201Z,15.59
2022-09-28T12:50:41.610Z,15.54
2022-09-28T12:51:27.679Z,15.54
2022-09-28T12:52:26.747Z,15.47
2022-09-28T12:53:26.651Z,15.43
2022-09-28T12:54:26.632Z,15.39
2022-09-28T12:55:26.633Z,15.29
2022-09-28T12:56:26.635Z,15.27
2022-09-28T12:57:26.605Z,15.27
2022-09-28T12:58:26.583Z,15.21
2022-09-28T12:59:26.641Z,15.18
2022-09-28T13:00:26.556Z,15.21
2022-09-28T13:01:26.630Z,15.19
2022-09-28T13:02:26.609Z,15.19
2022-09-28T13:03:26.544Z,15.24
2022-09-28T13:04:26.577Z,15.29
2022-09-28T13:05:26.506Z,15.35
2022-09-28T13:06:26.504Z,15.37